createdAt,value
2019-03-22T00:01:13.924Z,20.30
2019-03-22T00:03:40.533Z,18.50
2019-03-22T00:06:07.240Z,19.53
2019-03-22T00:08:33.716Z,19.20
2019-03-22T00:11:00.165Z,24.03
2019-03-22T00:13:26.796Z,21.70
2019-03-22T00:15:53.214Z,19.57
2019-03-22T00:18:19.880Z,19.17
2019-03-22T00:20:46.410Z,21.43
2019-03-22T00:23:14.190Z,19.57
2019-03-22T00:25:40.833Z,19.77
2019-03-22T00:28:07.501Z,19.13
2019-03-22T00:30:34.016Z,19.30
2019-03-22T00:33:00.601Z,22.47
2019-03-22T00:35:26.982Z,56.57
2019-03-22T00:37:53.664Z,55.50
2019-03-22T00:40:20.156Z,28.57
2019-03-22T00:42:46.811Z,24.50
2019-03-22T00:45:13.415Z,21.27
2019-03-22T00:47:39.993Z,19.07
2019-03-22T00:50:11.901Z,23.03
2019-03-22T00:52:38.381Z,22.20
2019-03-22T00:55:05.906Z,22.03
2019-03-22T00:57:32.415Z,20.20
2019-03-22T00:59:58.893Z,22.93
2019-03-22T01:02:25.348Z,21.17
2019-03-22T01:04:51.779Z,24.00
2019-03-22T01:07:18.279Z,24.50
2019-03-22T01:09:44.785Z,22.70
2019-03-22T01:12:11.339Z,21.90
2019-03-22T01:14:37.769Z,24.67
2019-03-22T01:17:04.305Z,23.57
2019-03-22T01:19:30.753Z,23.43
2019-03-22T01:21:57.251Z,23.97
2019-03-22T01:24:23.760Z,17.70
2019-03-22T01:26:50.229Z,19.40
2019-03-22T01:29:16.779Z,18.77
2019-03-22T01:31:43.199Z,19.47
2019-03-22T01:34:09.508Z,23.90
2019-03-22T01:36:35.944Z,21.37
2019-03-22T01:39:05.243Z,19.07
2019-03-22T01:41:31.680Z,19.23
2019-03-22T01:43:58.070Z,19.37
2019-03-22T01:46:24.779Z,22.20
2019-03-22T01:48:51.441Z,25.20
2019-03-22T01:51:17.869Z,22.00
2019-03-22T01:53:44.294Z,22.80
2019-03-22T01:56:10.831Z,20.83
2019-03-22T01:58:37.135Z,21.53
2019-03-22T02:01:03.873Z,20.23
2019-03-22T02:03:30.489Z,21.17
2019-03-22T02:05:56.937Z,19.53
2019-03-22T02:08:23.501Z,19.83
2019-03-22T02:10:50.139Z,21.10
2019-03-22T02:13:16.445Z,21.87
2019-03-22T02:15:42.848Z,19.20
2019-03-22T02:18:09.361Z,20.37
2019-03-22T02:20:35.759Z,25.10
2019-03-22T02:23:02.377Z,21.13
2019-03-22T02:25:29.011Z,34.07
2019-03-22T02:28:03.819Z,26.33
2019-03-22T02:30:23.555Z,23.60
2019-03-22T02:32:49.936Z,23.27
2019-03-22T02:35:28.211Z,22.33
2019-03-22T02:37:44.906Z,22.57
2019-03-22T02:40:12.170Z,21.13
2019-03-22T02:42:38.779Z,24.57
2019-03-22T02:45:11.799Z,24.00
2019-03-22T02:47:38.581Z,21.93
2019-03-22T02:50:18.175Z,24.63
2019-03-22T02:52:39.990Z,24.47
2019-03-22T02:55:09.388Z,24.37
2019-03-22T02:57:35.939Z,24.70
2019-03-22T03:00:13.165Z,22.37
2019-03-22T03:02:39.607Z,26.13
2019-03-22T03:05:08.315Z,22.40
2019-03-22T03:07:35.066Z,21.57
2019-03-22T03:10:03.505Z,22.03
2019-03-22T03:12:30.036Z,25.03
2019-03-22T03:14:56.340Z,24.73
2019-03-22T03:17:22.745Z,24.03
2019-03-22T03:19:49.312Z,25.73
2019-03-22T03:22:15.825Z,23.43
2019-03-22T03:24:42.167Z,28.80
2019-03-22T03:27:08.892Z,27.03
2019-03-22T03:29:35.307Z,33.60
2019-03-22T03:32:01.948Z,29.93
2019-03-22T03:34:28.382Z,26.33
2019-03-22T03:36:54.760Z,28.73
2019-03-22T03:39:21.316Z,28.50
2019-03-22T03:41:47.791Z,30.70
2019-03-22T03:44:14.221Z,30.67
2019-03-22T03:46:40.745Z,29.90
2019-03-22T03:49:07.261Z,27.17
2019-03-22T03:51:33.662Z,27.13
2019-03-22T03:54:00.113Z,25.07
2019-03-22T03:56:26.632Z,27.20
2019-03-22T03:58:53.208Z,25.83
2019-03-22T04:01:19.853Z,30.83
2019-03-22T04:03:46.330Z,28.50
2019-03-22T04:06:12.773Z,26.73
2019-03-22T04:08:39.166Z,26.27
2019-03-22T04:11:05.809Z,29.93
2019-03-22T04:13:32.257Z,24.97
2019-03-22T04:15:58.817Z,26.97
2019-03-22T04:18:25.324Z,29.13
2019-03-22T04:20:51.734Z,26.10
2019-03-22T04:23:18.058Z,25.80
2019-03-22T04:25:44.474Z,27.67
2019-03-22T04:28:10.768Z,24.87
2019-03-22T04:30:37.079Z,26.60
2019-03-22T04:33:06.651Z,26.50
2019-03-22T04:35:32.237Z,32.00
2019-03-22T04:37:58.628Z,27.43
2019-03-22T04:40:28.082Z,28.47
2019-03-22T04:42:54.904Z,29.30
2019-03-22T04:45:22.836Z,36.37
2019-03-22T04:47:54.883Z,29.30
2019-03-22T04:50:21.690Z,34.00
2019-03-22T04:52:49.719Z,29.73
2019-03-22T04:55:17.935Z,31.57
2019-03-22T04:57:45.571Z,36.40
2019-03-22T05:00:12.542Z,36.83
2019-03-22T05:02:40.577Z,26.70
2019-03-22T05:05:09.504Z,27.97
2019-03-22T05:07:36.204Z,27.90
2019-03-22T05:10:05.600Z,34.97
2019-03-22T05:12:32.642Z,34.70
2019-03-22T05:14:59.510Z,30.60
2019-03-22T05:17:26.753Z,29.37
2019-03-22T05:19:56.055Z,29.00
2019-03-22T05:22:27.043Z,32.10
2019-03-22T05:24:56.221Z,36.57
2019-03-22T05:27:24.375Z,33.53
2019-03-22T05:29:54.881Z,27.43
2019-03-22T05:32:21.441Z,30.10
2019-03-22T05:34:48.136Z,31.77
2019-03-22T05:37:14.541Z,26.93
2019-03-22T05:39:41.182Z,27.10
2019-03-22T05:42:07.546Z,29.50
2019-03-22T05:44:34.240Z,28.43
2019-03-22T05:47:01.348Z,31.20
2019-03-22T05:49:27.870Z,29.30
2019-03-22T05:51:54.264Z,27.20
2019-03-22T05:54:20.811Z,25.97
2019-03-22T05:56:47.296Z,28.53
2019-03-22T05:59:14.278Z,29.87
2019-03-22T06:01:40.907Z,28.98
2019-03-22T06:04:07.475Z,30.07
2019-03-22T06:06:34.062Z,33.30
2019-03-22T06:09:00.890Z,29.30
2019-03-22T06:11:27.515Z,29.33
2019-03-22T06:13:54.805Z,25.33
2019-03-22T06:16:21.372Z,28.97
2019-03-22T06:18:50.362Z,29.80
2019-03-22T06:21:16.264Z,24.10
2019-03-22T06:23:42.654Z,27.50
2019-03-22T06:26:09.222Z,34.00
2019-03-22T06:28:35.880Z,32.30
2019-03-22T06:31:02.438Z,30.27
2019-03-22T06:33:28.936Z,31.33
2019-03-22T06:35:55.260Z,30.83
2019-03-22T06:38:21.680Z,38.40
2019-03-22T06:40:48.254Z,27.73
2019-03-22T06:43:14.663Z,33.53
2019-03-22T06:45:41.221Z,41.20
2019-03-22T06:48:07.863Z,83.87
2019-03-22T06:50:34.306Z,81.90
2019-03-22T06:53:00.618Z,45.70
2019-03-22T06:55:27.365Z,36.53
2019-03-22T06:57:53.904Z,38.17
2019-03-22T07:00:20.433Z,40.10
2019-03-22T07:02:46.810Z,35.60
2019-03-22T07:05:13.788Z,40.20
2019-03-22T07:07:40.514Z,33.80
2019-03-22T07:10:09.988Z,38.30
2019-03-22T07:12:36.467Z,38.50
2019-03-22T07:15:05.173Z,40.43
2019-03-22T07:17:31.603Z,37.90
2019-03-22T07:19:58.192Z,37.50
2019-03-22T07:22:24.914Z,43.53
2019-03-22T07:24:51.439Z,38.73
2019-03-22T07:27:17.983Z,38.97
2019-03-22T07:29:44.463Z,38.40
2019-03-22T07:32:11.016Z,40.07
2019-03-22T07:34:37.590Z,45.97
2019-03-22T07:37:04.228Z,51.80
2019-03-22T07:39:30.675Z,43.10
2019-03-22T07:41:57.242Z,39.33
2019-03-22T07:44:23.966Z,47.80
2019-03-22T07:46:50.413Z,39.90
2019-03-22T07:49:16.847Z,41.53
2019-03-22T07:51:43.412Z,39.60
2019-03-22T07:54:10.015Z,35.27
2019-03-22T07:56:36.643Z,38.27
2019-03-22T07:59:03.260Z,42.00
2019-03-22T08:01:29.573Z,41.50
2019-03-22T08:03:56.206Z,38.90
2019-03-22T08:06:22.722Z,35.30
2019-03-22T08:08:49.280Z,36.60
2019-03-22T08:11:15.775Z,34.00
2019-03-22T08:13:42.242Z,38.80
2019-03-22T08:16:08.709Z,37.40
2019-03-22T08:18:35.554Z,37.73
2019-03-22T08:21:01.972Z,31.90
2019-03-22T08:23:28.387Z,31.80
2019-03-22T08:25:54.815Z,30.43
2019-03-22T08:28:21.227Z,38.23
2019-03-22T08:30:47.962Z,77.93
2019-03-22T08:33:14.480Z,69.93
2019-03-22T08:35:41.225Z,37.33
2019-03-22T08:38:07.747Z,38.60
2019-03-22T08:40:34.231Z,29.83
2019-03-22T08:43:00.866Z,39.77
2019-03-22T08:45:27.383Z,30.70
2019-03-22T08:47:53.953Z,29.73
2019-03-22T08:50:20.692Z,30.70
2019-03-22T08:52:47.376Z,30.10
2019-03-22T08:55:13.986Z,30.17
2019-03-22T08:57:40.292Z,30.27
2019-03-22T09:00:10.902Z,29.03
2019-03-22T09:02:44.177Z,33.73
2019-03-22T09:05:10.821Z,24.80
2019-03-22T09:07:37.433Z,26.53
2019-03-22T09:10:11.498Z,29.20
2019-03-22T09:12:38.134Z,31.63
2019-03-22T09:15:07.238Z,31.03
2019-03-22T09:17:33.767Z,25.00
2019-03-22T09:20:00.449Z,25.00
2019-03-22T09:22:26.950Z,25.30
2019-03-22T09:24:53.615Z,26.63
2019-03-22T09:27:20.339Z,24.07
2019-03-22T09:29:47.513Z,25.40
2019-03-22T09:32:14.210Z,35.63
2019-03-22T09:34:40.775Z,51.03
2019-03-22T09:37:08.959Z,30.93
2019-03-22T09:39:35.780Z,25.00
2019-03-22T09:42:02.427Z,25.80
2019-03-22T09:44:42.372Z,20.43
2019-03-22T09:46:57.387Z,19.97
2019-03-22T09:49:24.190Z,22.10
2019-03-22T09:51:50.657Z,23.53
2019-03-22T09:54:17.256Z,20.60
2019-03-22T09:56:47.328Z,18.70
2019-03-22T09:59:12.323Z,17.10
2019-03-22T10:01:38.867Z,15.57
2019-03-22T10:04:05.176Z,16.47
2019-03-22T10:06:31.690Z,17.90
2019-03-22T10:08:58.396Z,19.10
2019-03-22T10:11:24.813Z,22.50
2019-03-22T10:13:51.383Z,19.30
2019-03-22T10:16:17.721Z,14.00
2019-03-22T10:18:44.234Z,14.17
2019-03-22T10:21:21.824Z,14.20
2019-03-22T10:23:39.056Z,14.30
2019-03-22T10:26:05.704Z,14.43
2019-03-22T10:28:32.092Z,12.87
2019-03-22T10:30:58.621Z,16.00
2019-03-22T10:33:25.076Z,14.27
2019-03-22T10:35:51.896Z,11.47
2019-03-22T10:38:30.628Z,12.00
2019-03-22T10:40:47.549Z,10.13
2019-03-22T10:43:14.075Z,11.30
2019-03-22T10:45:40.601Z,12.63
2019-03-22T10:48:07.237Z,10.97
2019-03-22T10:50:33.881Z,14.17
2019-03-22T10:53:00.539Z,14.63
2019-03-22T10:55:30.146Z,13.47
2019-03-22T10:57:55.682Z,10.13
2019-03-22T11:00:22.327Z,9.07
2019-03-22T11:02:48.797Z,10.60
2019-03-22T11:05:15.412Z,13.90
2019-03-22T11:07:42.147Z,15.93
2019-03-22T11:10:13.601Z,13.70
2019-03-22T11:12:40.458Z,10.10
2019-03-22T11:15:11.080Z,12.70
2019-03-22T11:17:37.699Z,7.70
2019-03-22T11:20:08.362Z,7.17
2019-03-22T11:22:34.942Z,10.03
2019-03-22T11:25:01.808Z,7.67
2019-03-22T11:27:28.242Z,9.13
2019-03-22T11:29:54.861Z,11.50
2019-03-22T11:32:21.567Z,11.07
2019-03-22T11:34:48.077Z,7.27
2019-03-22T11:37:14.847Z,8.23
2019-03-22T11:39:41.402Z,10.70
2019-03-22T11:42:07.992Z,9.30
2019-03-22T11:44:34.433Z,12.27
2019-03-22T11:47:00.970Z,9.40
2019-03-22T11:49:27.708Z,9.63
2019-03-22T11:51:54.147Z,11.07
2019-03-22T11:54:20.672Z,9.37
2019-03-22T11:56:47.201Z,9.00
2019-03-22T11:59:13.767Z,8.70
2019-03-22T12:01:40.443Z,9.27
2019-03-22T12:04:06.965Z,11.07
2019-03-22T12:06:33.712Z,9.77
2019-03-22T12:09:00.312Z,10.43
2019-03-22T12:11:26.883Z,8.73
2019-03-22T12:13:53.501Z,8.90
2019-03-22T12:16:20.060Z,10.07
2019-03-22T12:18:46.538Z,13.43
2019-03-22T12:21:13.127Z,10.60
2019-03-22T12:23:39.710Z,10.03
2019-03-22T12:26:06.566Z,13.07
2019-03-22T12:28:33.381Z,8.90
2019-03-22T12:31:00.276Z,14.33
2019-03-22T12:33:26.907Z,12.70
2019-03-22T14:56:55.437Z,2.33
2019-03-22T14:59:21.966Z,6.17
2019-03-22T15:01:48.288Z,3.87
2019-03-22T15:04:14.697Z,4.47
2019-03-22T15:06:41.125Z,2.73
2019-03-22T15:09:07.728Z,3.00
2019-03-22T15:11:34.366Z,2.80
2019-03-22T15:14:02.800Z,24.00
2019-03-22T15:16:37.445Z,6.43
2019-03-22T15:19:05.809Z,6.07
2019-03-22T15:21:50.676Z,5.00
2019-03-22T15:24:22.303Z,4.57
2019-03-22T15:26:53.375Z,2.80
2019-03-22T15:29:30.479Z,3.00
2019-03-22T15:32:15.148Z,5.23
2019-03-22T15:34:46.777Z,4.20
2019-03-22T15:37:21.524Z,5.23
2019-03-22T15:39:58.788Z,4.27
2019-03-22T15:42:25.433Z,2.70
2019-03-22T15:44:53.976Z,2.87
2019-03-22T15:47:20.749Z,3.07
2019-03-22T15:49:47.283Z,2.37
2019-03-22T15:52:13.830Z,3.40
2019-03-22T15:54:40.492Z,4.70
2019-03-22T15:57:08.877Z,1.83
2019-03-22T15:59:35.577Z,1.60
2019-03-22T16:02:02.194Z,3.47
2019-03-22T16:04:30.133Z,2.00
2019-03-22T16:06:56.636Z,6.47
2019-03-22T16:09:23.285Z,2.97
2019-03-22T16:11:49.725Z,4.33
2019-03-22T16:14:18.427Z,2.10
2019-03-22T16:16:45.272Z,1.73
2019-03-22T16:19:11.863Z,2.40
2019-03-22T16:21:38.615Z,3.63
2019-03-22T16:24:05.269Z,2.80
2019-03-22T16:26:31.912Z,5.13
2019-03-22T16:28:58.704Z,2.30
2019-03-22T16:31:25.218Z,1.90
2019-03-22T16:33:54.866Z,2.73
2019-03-22T16:36:20.442Z,1.87
2019-03-22T16:38:47.054Z,5.37
2019-03-22T16:41:13.710Z,4.33
2019-03-22T16:43:40.395Z,2.10
2019-03-22T16:46:09.114Z,1.93
2019-03-22T16:48:35.727Z,6.80
2019-03-22T16:51:02.395Z,5.37
2019-03-22T16:53:28.704Z,4.10
2019-03-22T16:55:55.363Z,2.60
2019-03-22T16:58:21.944Z,4.03
2019-03-22T17:00:49.991Z,7.10
2019-03-22T17:03:16.808Z,4.07
2019-03-22T17:05:43.512Z,2.93
2019-03-22T17:08:10.179Z,3.57
2019-03-22T17:10:36.685Z,5.70
2019-03-22T17:13:03.771Z,4.97
2019-03-22T17:15:30.378Z,3.93
2019-03-22T17:17:57.113Z,4.93
2019-03-22T17:20:23.644Z,5.00
2019-03-22T17:22:50.318Z,5.07
2019-03-22T17:25:16.819Z,5.73
2019-03-22T17:27:43.477Z,5.93
2019-03-22T17:30:10.522Z,4.83
2019-03-22T17:32:37.172Z,3.03
2019-03-22T17:35:06.603Z,2.93
2019-03-22T17:37:33.057Z,4.33
2019-03-22T17:39:59.553Z,4.93
2019-03-22T17:42:26.164Z,4.40
2019-03-22T17:44:52.745Z,3.97
2019-03-22T17:47:19.296Z,6.03
2019-03-22T17:49:48.325Z,6.50
2019-03-22T17:52:14.309Z,3.73
2019-03-22T17:54:40.857Z,5.27
2019-03-22T17:57:07.427Z,4.97
2019-03-22T17:59:33.956Z,4.73
2019-03-22T18:02:00.591Z,5.37
2019-03-22T18:04:27.309Z,5.60
2019-03-22T18:06:53.778Z,6.77
2019-03-22T18:09:20.380Z,5.13
2019-03-22T18:11:49.357Z,5.23
2019-03-22T18:14:16.166Z,5.17
2019-03-22T18:16:42.688Z,4.33
2019-03-22T18:19:09.483Z,6.47
2019-03-22T18:21:36.342Z,3.90
2019-03-22T18:24:03.123Z,2.80
2019-03-22T18:26:31.888Z,5.27
2019-03-22T18:28:58.555Z,4.17
2019-03-22T18:31:25.181Z,3.77
2019-03-22T18:33:51.467Z,5.87
2019-03-22T18:36:17.856Z,5.20
2019-03-22T18:38:44.417Z,6.73
2019-03-22T18:41:11.162Z,6.20
2019-03-22T18:43:37.656Z,14.87
2019-03-22T18:46:04.308Z,6.57
2019-03-22T18:48:31.079Z,6.07
2019-03-22T18:50:57.855Z,6.70
2019-03-22T18:53:24.578Z,5.30
2019-03-22T18:55:51.139Z,3.33
2019-03-22T18:58:17.733Z,4.27
2019-03-22T19:00:44.632Z,5.27
2019-03-22T19:03:11.468Z,5.83
2019-03-22T19:05:38.209Z,6.13
2019-03-22T19:08:04.920Z,5.97
2019-03-22T19:10:31.740Z,4.33
2019-03-22T19:12:58.278Z,4.43
2019-03-22T19:15:24.888Z,8.37
2019-03-22T19:17:51.499Z,5.77
2019-03-22T19:20:18.121Z,4.37
2019-03-22T19:22:44.815Z,7.03
2019-03-22T19:25:11.849Z,5.53
2019-03-22T19:27:38.698Z,3.97
2019-03-22T19:30:13.452Z,7.33
2019-03-22T19:32:40.252Z,5.93
2019-03-22T19:35:08.360Z,4.83
2019-03-22T19:37:35.304Z,5.93
2019-03-22T19:40:09.910Z,4.13
2019-03-22T19:42:36.625Z,4.47
2019-03-22T19:45:07.505Z,5.87
2019-03-22T19:47:34.272Z,6.00
2019-03-22T19:50:01.021Z,6.37
2019-03-22T19:52:27.858Z,5.57
2019-03-22T19:54:54.411Z,14.87
2019-03-22T19:57:21.087Z,12.03
2019-03-22T19:59:47.848Z,5.77
2019-03-22T20:02:16.662Z,8.60
2019-03-22T20:04:43.314Z,7.17
2019-03-22T20:07:10.052Z,6.47
2019-03-22T20:09:37.784Z,6.27
2019-03-22T20:12:04.448Z,7.47
2019-03-22T20:14:30.980Z,6.37
2019-03-22T20:16:57.850Z,6.97
2019-03-22T20:19:24.699Z,6.57
2019-03-22T20:21:51.285Z,6.00
2019-03-22T20:24:18.057Z,5.03
2019-03-22T20:26:44.635Z,5.80
2019-03-22T20:29:11.290Z,7.43
2019-03-22T20:31:38.127Z,7.37
2019-03-22T20:34:04.923Z,5.87
2019-03-22T20:36:31.768Z,90.30
2019-03-22T20:38:58.307Z,40.57
2019-03-22T20:41:25.157Z,10.20
2019-03-22T20:43:51.810Z,6.93
2019-03-22T20:46:18.351Z,4.23
2019-03-22T20:48:44.923Z,7.53
2019-03-22T20:51:11.527Z,5.77
2019-03-22T20:53:38.196Z,7.70
2019-03-22T20:56:04.843Z,5.40
2019-03-22T20:58:31.572Z,8.73
2019-03-22T21:01:00.465Z,7.17
2019-03-22T21:03:27.023Z,8.43
2019-03-22T21:05:53.590Z,5.13
2019-03-22T21:08:20.258Z,10.90
2019-03-22T21:10:47.012Z,6.67
2019-03-22T21:13:13.496Z,6.33
2019-03-22T21:15:40.263Z,7.83
2019-03-22T21:18:07.267Z,9.47
2019-03-22T21:20:34.013Z,7.40
2019-03-22T21:23:00.723Z,7.50
2019-03-22T21:25:27.480Z,8.57
2019-03-22T21:27:54.234Z,6.40
2019-03-22T21:30:22.539Z,8.53
2019-03-22T21:32:49.207Z,6.97
2019-03-22T21:35:22.406Z,6.20
2019-03-22T21:37:44.693Z,5.50
2019-03-22T21:40:11.935Z,6.17
2019-03-22T21:42:38.858Z,6.40
2019-03-22T21:45:07.423Z,5.73
2019-03-22T21:47:34.804Z,6.83
2019-03-22T21:50:01.426Z,7.97
2019-03-22T21:52:28.324Z,5.30
2019-03-22T21:54:54.862Z,6.83
2019-03-22T21:57:21.394Z,55.20
2019-03-22T21:59:48.089Z,32.83
2019-03-22T22:02:14.759Z,13.57
2019-03-22T22:04:41.376Z,8.27
2019-03-22T22:07:09.247Z,8.50
2019-03-22T22:09:35.922Z,7.13
2019-03-22T22:12:02.920Z,7.10
2019-03-22T22:14:40.226Z,10.80
2019-03-22T22:16:58.017Z,7.43
2019-03-22T22:19:24.753Z,11.00
2019-03-22T22:21:51.170Z,5.73
2019-03-22T22:24:17.668Z,8.87
2019-03-22T22:26:44.199Z,6.30
2019-03-22T22:29:10.747Z,5.67
2019-03-22T22:31:37.290Z,10.67
2019-03-22T22:34:03.837Z,5.50
2019-03-22T22:36:30.598Z,7.20
2019-03-22T22:38:57.154Z,5.80
2019-03-22T22:41:23.570Z,6.67
2019-03-22T22:43:50.104Z,5.83
2019-03-22T22:46:17.139Z,6.97
2019-03-22T22:48:44.068Z,9.33
2019-03-22T22:51:10.340Z,7.40
2019-03-22T22:53:37.075Z,8.37
2019-03-22T22:56:03.970Z,10.00
2019-03-22T22:58:30.454Z,10.20
2019-03-22T23:00:56.985Z,10.77
2019-03-22T23:03:23.393Z,8.53
2019-03-22T23:05:49.871Z,10.60
2019-03-22T23:08:16.378Z,9.03
2019-03-22T23:10:43.113Z,6.73
2019-03-22T23:13:09.483Z,9.13
2019-03-22T23:15:36.058Z,7.40
2019-03-22T23:18:02.730Z,8.23
2019-03-22T23:20:29.152Z,6.13
2019-03-22T23:22:55.484Z,10.63
2019-03-22T23:25:21.993Z,10.60
2019-03-22T23:27:48.590Z,8.53
2019-03-22T23:30:15.556Z,6.67
2019-03-22T23:32:42.052Z,6.67
2019-03-22T23:35:08.739Z,10.50
2019-03-22T23:37:35.294Z,6.33
2019-03-22T23:40:03.692Z,9.33
2019-03-22T23:42:30.294Z,7.13
2019-03-22T23:44:56.817Z,6.70
2019-03-22T23:47:23.178Z,8.60
2019-03-22T23:49:49.738Z,6.77
2019-03-22T23:52:16.182Z,7.70
2019-03-22T23:54:42.774Z,7.60
2019-03-22T23:57:09.493Z,6.53
2019-03-22T23:59:36.022Z,6.90
